Time;durP1;ratioP1;P1;durP2;ratioP2;P2;SDS_P1;SDS_P2;PMS_P1;PMS_P2;Temp;Humidity;BMP_temperature;BMP_pressure;BME280_temperature;BME280_humidity;BME280_pressure;Samples;Min_cycle;Max_cycle;Signal;HPM_P1;HPM_P2
2020/12/13 00:00:00;;;;;;;1999.90;999.90;;;6.60;99.90;;;;;;5092391;28;20052;-87
2020/12/13 00:02:28;;;;;;;1999.90;999.90;;;6.50;99.90;;;;;;5092173;28;20554;-87
2020/12/13 00:04:55;;;;;;;1999.90;999.90;;;6.50;99.90;;;;;;5092545;28;20062;-87
2020/12/13 00:07:22;;;;;;;1999.90;999.90;;;6.50;99.90;;;;;;5092648;28;20085;-86
2020/12/13 00:09:49;;;;;;;1999.90;999.90;;;6.60;99.90;;;;;;5092166;28;20060;-87
2020/12/13 00:12:17;;;;;;;1999.90;999.90;;;6.60;99.90;;;;;;5092254;28;20269;-87
2020/12/13 00:14:43;;;;;;;1999.90;999.90;;;6.60;99.90;;;;;;5090264;28;20069;-87
2020/12/13 00:17:11;;;;;;;1999.90;999.90;;;6.60;99.90;;;;;;5092365;28;20048;-87
2020/12/13 00:19:38;;;;;;;1999.90;999.90;;;6.60;99.90;;;;;;5091519;28;20135;-86
2020/12/13 00:22:05;;;;;;;1999.90;999.90;;;6.60;99.90;;;;;;5092143;28;20040;-87
2020/12/13 00:24:32;;;;;;;1999.90;999.90;;;6.60;99.90;;;;;;5092492;28;20062;-87
2020/12/13 00:26:59;;;;;;;1999.90;999.90;;;6.60;99.90;;;;;;5080487;28;20154;-88
2020/12/13 00:29:27;;;;;;;1999.90;999.90;;;6.70;99.90;;;;;;5092703;28;20075;-88
2020/12/13 00:31:54;;;;;;;1999.90;999.90;;;6.70;99.90;;;;;;5092849;28;20044;-88
2020/12/13 00:34:22;;;;;;;1999.90;999.90;;;6.70;99.90;;;;;;5096322;28;20131;-88
2020/12/13 00:36:51;;;;;;;1999.90;999.90;;;6.70;99.90;;;;;;5095153;28;20067;-87
2020/12/13 00:39:18;;;;;;;1999.90;999.90;;;6.70;99.90;;;;;;5081690;28;20104;-88
2020/12/13 00:41:49;;;;;;;1999.90;999.90;;;6.70;99.90;;;;;;5089791;28;20051;-87
2020/12/13 00:44:17;;;;;;;1999.90;999.90;;;6.70;99.90;;;;;;5079702;28;20060;-88
2020/12/13 00:46:44;;;;;;;1999.90;999.90;;;6.70;99.90;;;;;;5083595;28;20468;-87
2020/12/13 00:49:11;;;;;;;1999.90;999.90;;;6.70;99.90;;;;;;5087434;28;20163;-88
2020/12/13 00:51:39;;;;;;;1999.90;999.90;;;6.70;99.90;;;;;;5092491;28;20062;-88
2020/12/13 00:54:06;;;;;;;1999.90;999.90;;;6.70;99.90;;;;;;5092897;28;20131;-87
2020/12/13 00:56:33;;;;;;;1999.90;999.90;;;6.70;99.90;;;;;;5082789;28;20070;-88
2020/12/13 00:59:00;;;;;;;1999.90;999.90;;;6.70;99.90;;;;;;5091094;28;20056;-88
2020/12/13 01:01:27;;;;;;;1999.90;999.90;;;6.80;99.90;;;;;;5091644;28;20048;-87
2020/12/13 01:03:54;;;;;;;1999.90;999.90;;;6.80;99.90;;;;;;5092650;28;20052;-87
2020/12/13 01:06:23;;;;;;;1999.90;999.90;;;6.70;99.90;;;;;;5093906;28;20138;-87
2020/12/13 01:08:52;;;;;;;1999.90;999.90;;;6.70;99.90;;;;;;5092221;28;20486;-87
2020/12/13 01:11:24;;;;;;;1999.90;999.90;;;6.70;99.90;;;;;;5096369;28;20044;-85
2020/12/13 01:13:51;;;;;;;1999.90;999.90;;;6.70;99.90;;;;;;5096149;28;20044;-87
2020/12/13 01:16:19;;;;;;;1999.90;999.90;;;6.70;99.90;;;;;;5096260;28;20138;-87
2020/12/13 01:18:47;;;;;;;1999.90;999.90;;;6.70;99.90;;;;;;5096163;28;20127;-85
2020/12/13 01:21:22;;;;;;;1999.90;999.90;;;6.70;99.90;;;;;;5096055;28;20101;-87
2020/12/13 01:23:50;;;;;;;1999.90;999.90;;;6.60;99.90;;;;;;5096046;28;20052;-87
2020/12/13 01:26:19;;;;;;;1999.90;999.90;;;6.60;99.90;;;;;;5096478;28;20076;-87
2020/12/13 01:28:46;;;;;;;1999.90;999.90;;;6.60;99.90;;;;;;5096546;28;20127;-87
2020/12/13 01:31:16;;;;;;;1999.90;999.90;;;6.70;99.90;;;;;;5095640;28;20079;-87
2020/12/13 01:33:43;;;;;;;1999.90;999.90;;;6.70;99.90;;;;;;5095603;28;20053;-87
2020/12/13 01:36:11;;;;;;;1999.90;999.90;;;6.70;99.90;;;;;;5084645;28;20127;-87
2020/12/13 01:38:38;;;;;;;1999.90;999.90;;;6.70;99.90;;;;;;5088815;28;20062;-87
2020/12/13 01:41:06;;;;;;;1999.90;999.90;;;6.70;99.90;;;;;;5095752;28;20123;-87
2020/12/13 01:43:33;;;;;;;1999.90;999.90;;;6.70;99.90;;;;;;5095394;28;20130;-87
2020/12/13 01:46:01;;;;;;;1999.90;999.90;;;6.80;99.90;;;;;;5095377;28;20545;-87
2020/12/13 01:48:28;;;;;;;1999.90;999.90;;;6.70;99.90;;;;;;5095807;28;20048;-86
2020/12/13 01:51:03;;;;;;;1999.90;999.90;;;6.70;99.90;;;;;;5095404;28;20128;-87
2020/12/13 01:53:33;;;;;;;1999.90;999.90;;;6.80;99.90;;;;;;5096472;28;20054;-87
2020/12/13 01:56:02;;;;;;;1999.90;999.90;;;6.80;99.90;;;;;;5095645;28;20506;-87
2020/12/13 01:58:36;;;;;;;1999.90;999.90;;;6.70;99.90;;;;;;5095957;28;20062;-87
2020/12/13 02:01:05;;;;;;;1999.90;999.90;;;6.80;99.90;;;;;;5095364;28;20076;-87
2020/12/13 02:03:40;;;;;;;1999.90;999.90;;;6.80;99.90;;;;;;5095732;28;20052;-87
2020/12/13 02:06:12;;;;;;;1999.90;999.90;;;6.70;99.90;;;;;;5095086;28;20044;-87
2020/12/13 02:08:41;;;;;;;1999.90;999.90;;;6.70;99.90;;;;;;5094992;28;20055;-87
2020/12/13 02:11:09;;;;;;;1999.90;999.90;;;6.70;99.90;;;;;;5094926;28;20074;-84
2020/12/13 02:13:37;;;;;;;1999.90;999.90;;;6.70;99.90;;;;;;5085389;28;20052;-84
2020/12/13 02:16:06;;;;;;;1999.90;999.90;;;6.80;99.90;;;;;;5091617;28;20147;-84
2020/12/13 02:18:34;;;;;;;1999.90;999.90;;;6.80;99.90;;;;;;5093587;28;20417;-83
2020/12/13 02:21:01;;;;;;;1999.90;999.90;;;6.80;99.90;;;;;;5094251;28;20054;-83
2020/12/13 02:23:31;;;;;;;1999.90;999.90;;;6.80;99.90;;;;;;5094482;28;20059;-84
2020/12/13 02:25:58;;;;;;;1999.90;999.90;;;6.80;99.90;;;;;;5094472;28;20056;-84
2020/12/13 02:28:25;;;;;;;1999.90;999.90;;;6.80;99.90;;;;;;5094195;28;20521;-83
2020/12/13 02:30:52;;;;;;;1999.90;999.90;;;6.80;99.90;;;;;;5094310;28;20429;-83
2020/12/13 02:33:19;;;;;;;1999.90;999.90;;;6.80;99.90;;;;;;5093949;28;20060;-84
2020/12/13 02:35:46;;;;;;;1999.90;999.90;;;6.80;99.90;;;;;;5094095;28;21316;-84
2020/12/13 02:38:13;;;;;;;1999.90;999.90;;;6.90;99.90;;;;;;5094845;28;20113;-84
2020/12/13 02:40:41;;;;;;;1999.90;999.90;;;6.80;99.90;;;;;;5080866;28;20468;-84
2020/12/13 02:43:08;;;;;;;1999.90;999.90;;;6.90;99.90;;;;;;5094292;28;20070;-83
2020/12/13 02:45:35;;;;;;;1999.90;999.90;;;6.80;99.90;;;;;;5093793;28;20052;-84
2020/12/13 02:48:02;;;;;;;1999.90;999.90;;;6.80;99.90;;;;;;5094076;28;20048;-84
2020/12/13 02:50:31;;;;;;;1999.90;999.90;;;6.80;99.90;;;;;;5093960;28;20128;-83
2020/12/13 02:52:59;;;;;;;1999.90;999.90;;;6.80;99.90;;;;;;5094132;28;20056;-83
2020/12/13 02:55:26;;;;;;;1999.90;999.90;;;6.80;99.90;;;;;;5093854;28;20140;-83
2020/12/13 02:57:54;;;;;;;1999.90;999.90;;;6.70;99.90;;;;;;5081951;28;20052;-84
2020/12/13 03:00:21;;;;;;;1999.90;999.90;;;6.80;99.90;;;;;;5093591;28;20080;-82
2020/12/13 03:02:49;;;;;;;1999.90;999.90;;;6.80;99.90;;;;;;5092848;28;20101;-83
2020/12/13 03:05:16;;;;;;;1999.90;999.90;;;6.80;99.90;;;;;;5094262;28;20105;-83
2020/12/13 03:07:43;;;;;;;1999.90;999.90;;;6.80;99.90;;;;;;5092876;28;20127;-83
2020/12/13 03:10:10;;;;;;;1999.90;999.90;;;6.80;99.90;;;;;;5093531;28;20781;-83
2020/12/13 03:12:37;;;;;;;1999.90;999.90;;;6.80;99.90;;;;;;5093037;28;20040;-83
2020/12/13 03:15:06;;;;;;;1999.90;999.90;;;6.80;99.90;;;;;;5092159;28;20044;-83
2020/12/13 03:17:34;;;;;;;1999.90;999.90;;;6.80;99.90;;;;;;5093439;28;20048;-84
2020/12/13 03:20:01;;;;;;;1999.90;999.90;;;6.80;99.90;;;;;;5093251;28;20135;-83
2020/12/13 03:22:28;;;;;;;1999.90;999.90;;;6.80;99.90;;;;;;5093610;28;20473;-87
2020/12/13 03:24:55;;;;;;;1999.90;999.90;;;6.80;99.90;;;;;;5094968;28;20085;-86
2020/12/13 03:27:24;;;;;;;1999.90;999.90;;;6.80;99.90;;;;;;5093744;28;20105;-87
2020/12/13 03:29:53;;;;;;;1999.90;999.90;;;6.80;99.90;;;;;;5096190;28;20395;-87
2020/12/13 03:32:22;;;;;;;1999.90;999.90;;;6.80;99.90;;;;;;5093995;28;20040;-87
2020/12/13 03:34:49;;;;;;;1999.90;999.90;;;6.80;99.90;;;;;;5094252;28;20109;-87
2020/12/13 03:37:17;;;;;;;1999.90;999.90;;;6.80;99.90;;;;;;5093828;28;20119;-87
2020/12/13 03:39:45;;;;;;;1999.90;999.90;;;6.80;99.90;;;;;;5093898;28;20052;-86
2020/12/13 03:42:12;;;;;;;1999.90;999.90;;;6.80;99.90;;;;;;5094040;28;20048;-87
2020/12/13 03:44:38;;;;;;;1999.90;999.90;;;6.80;99.90;;;;;;5094073;28;20106;-87
2020/12/13 03:47:05;;;;;;;1999.90;999.90;;;6.80;99.90;;;;;;5093567;28;20566;-87
2020/12/13 03:49:34;;;;;;;1999.90;999.90;;;6.80;99.90;;;;;;5094258;28;20055;-88
2020/12/13 03:52:02;;;;;;;1999.90;999.90;;;6.80;99.90;;;;;;5093377;28;20109;-88
2020/12/13 03:54:30;;;;;;;1999.90;999.90;;;6.80;99.90;;;;;;5094293;28;20134;-88
2020/12/13 03:56:57;;;;;;;1999.90;999.90;;;6.80;99.90;;;;;;5092421;28;20139;-87
2020/12/13 03:59:24;;;;;;;1999.90;999.90;;;6.70;99.90;;;;;;5093833;28;20062;-87
2020/12/13 04:01:52;;;;;;;1999.90;999.90;;;6.70;99.90;;;;;;5093040;28;20071;-87
2020/12/13 04:04:19;;;;;;;1999.90;999.90;;;6.70;99.90;;;;;;5093268;28;20055;-87
2020/12/13 04:06:48;;;;;;;1999.90;999.90;;;6.80;99.90;;;;;;5093237;28;20406;-87
2020/12/13 04:09:14;;;;;;;1999.90;999.90;;;6.70;99.90;;;;;;5082453;28;20436;-87
2020/12/13 04:11:41;;;;;;;1999.90;999.90;;;6.70;99.90;;;;;;5089260;28;20432;-87
2020/12/13 04:14:08;;;;;;;1999.90;999.90;;;6.70;99.90;;;;;;5093508;28;20180;-87
2020/12/13 04:16:36;;;;;;;1999.90;999.90;;;6.70;99.90;;;;;;5093002;28;20397;-87
2020/12/13 04:19:03;;;;;;;1999.90;999.90;;;6.70;99.90;;;;;;5093988;28;20050;-87
2020/12/13 04:21:30;;;;;;;1999.90;999.90;;;6.70;99.90;;;;;;5093139;28;20074;-87
2020/12/13 04:23:58;;;;;;;1999.90;999.90;;;6.70;99.90;;;;;;5093260;28;20097;-87
2020/12/13 04:26:25;;;;;;;1999.90;999.90;;;6.70;99.90;;;;;;5093485;28;20084;-87
2020/12/13 04:28:52;;;;;;;1999.90;999.90;;;6.70;99.90;;;;;;5093224;28;20115;-87
2020/12/13 04:31:19;;;;;;;1999.90;999.90;;;6.60;99.90;;;;;;5093233;28;20044;-87
2020/12/13 04:33:46;;;;;;;1999.90;999.90;;;6.60;99.90;;;;;;5093684;28;20052;-87
2020/12/13 04:36:13;;;;;;;1999.90;999.90;;;6.60;99.90;;;;;;5092338;28;20394;-87
2020/12/13 04:38:40;;;;;;;1999.90;999.90;;;6.60;99.90;;;;;;5093240;28;20075;-87
2020/12/13 04:41:08;;;;;;;1999.90;999.90;;;6.70;99.90;;;;;;5090476;28;20036;-87
2020/12/13 04:43:34;;;;;;;1999.90;999.90;;;6.60;99.90;;;;;;5090061;28;20143;-87
2020/12/13 04:46:01;;;;;;;1999.90;999.90;;;6.70;99.90;;;;;;5097378;28;20466;-86
2020/12/13 04:48:29;;;;;;;1999.90;999.90;;;6.70;99.90;;;;;;5092963;28;20048;-86
2020/12/13 04:50:59;;;;;;;1999.90;999.90;;;6.70;99.90;;;;;;5098245;28;20115;-86
2020/12/13 04:53:28;;;;;;;1999.90;999.90;;;6.70;99.90;;;;;;5098575;28;20080;-87
2020/12/13 04:55:57;;;;;;;1999.90;999.90;;;6.70;99.90;;;;;;5098765;28;20151;-87
2020/12/13 04:58:26;;;;;;;1999.90;999.90;;;6.70;99.90;;;;;;5095888;28;20044;-85
2020/12/13 05:00:55;;;;;;;1999.90;999.90;;;6.70;99.90;;;;;;5095588;28;20059;-87
2020/12/13 05:03:23;;;;;;;1999.90;999.90;;;6.60;99.90;;;;;;5096423;28;20047;-87
2020/12/13 05:05:51;;;;;;;1999.90;999.90;;;6.70;99.90;;;;;;5097314;28;20109;-87
2020/12/13 05:08:19;;;;;;;1999.90;999.90;;;6.60;99.90;;;;;;5096461;28;20131;-87
2020/12/13 05:10:46;;;;;;;1999.90;999.90;;;6.60;99.90;;;;;;5096578;28;20056;-86
2020/12/13 05:13:13;;;;;;;1999.90;999.90;;;6.70;99.90;;;;;;5096325;28;20047;-86
2020/12/13 05:15:41;;;;;;;1999.90;999.90;;;6.70;99.90;;;;;;5086836;28;20044;-94
2020/12/13 05:18:09;;;;;;;1999.90;999.90;;;6.70;99.90;;;;;;5097664;28;20118;-94
2020/12/13 05:20:36;;;;;;;1999.90;999.90;;;6.70;99.90;;;;;;5098025;28;20048;-94
2020/12/13 05:23:03;;;;;;;1999.90;999.90;;;6.70;99.90;;;;;;5097623;28;20127;-94
2020/12/13 05:25:35;;;;;;;1999.90;999.90;;;6.70;99.90;;;;;;5097365;28;20460;-94
2020/12/13 05:28:04;;;;;;;1999.90;999.90;;;6.70;99.90;;;;;;5097445;28;20055;-94
2020/12/13 05:30:35;;;;;;;1999.90;999.90;;;6.70;99.90;;;;;;5097096;28;20083;-94
2020/12/13 05:33:06;;;;;;;1999.90;999.90;;;6.80;99.90;;;;;;5097307;28;20470;-95
2020/12/13 05:35:33;;;;;;;1999.90;999.90;;;6.80;99.90;;;;;;5097060;28;20075;-93
2020/12/13 05:38:08;;;;;;;1999.90;999.90;;;6.80;99.90;;;;;;5097448;28;20097;-94
2020/12/13 05:40:35;;;;;;;1999.90;999.90;;;6.80;99.90;;;;;;5097104;28;20143;-94
2020/12/13 05:43:08;;;;;;;1999.90;999.90;;;6.80;99.90;;;;;;5097255;28;20094;-94
2020/12/13 05:51:36;;;;;;;1999.90;999.90;;;6.80;99.90;;;;;;5096591;28;20044;-94
2020/12/13 05:54:05;;;;;;;1999.90;999.90;;;6.80;99.90;;;;;;5076174;28;20057;-95
2020/12/13 05:56:34;;;;;;;1999.90;999.90;;;6.80;99.90;;;;;;5095257;28;20117;-94
2020/12/13 05:59:01;;;;;;;1999.90;999.90;;;6.80;99.90;;;;;;5097074;28;20473;-96
2020/12/13 06:01:31;;;;;;;1999.90;999.90;;;6.80;99.90;;;;;;5096606;28;20131;-94
2020/12/13 06:04:00;;;;;;;1999.90;999.90;;;6.80;99.90;;;;;;5096870;28;20436;-94
2020/12/13 06:06:27;;;;;;;1999.90;999.90;;;6.80;99.90;;;;;;5096994;28;20098;-95
2020/12/13 06:09:07;;;;;;;1999.90;999.90;;;6.90;99.90;;;;;;5086580;28;20056;-95
2020/12/13 06:11:37;;;;;;;1999.90;999.90;;;6.90;99.90;;;;;;5094628;28;20133;-95
2020/12/13 06:14:15;;;;;;;1999.90;999.90;;;6.90;99.90;;;;;;5096699;28;20083;-95
2020/12/13 06:16:43;;;;;;;1999.90;999.90;;;6.90;99.90;;;;;;5096404;28;20076;-95
2020/12/13 06:19:13;;;;;;;1999.90;999.90;;;6.90;99.90;;;;;;5096844;28;20098;-95
2020/12/13 06:21:42;;;;;;;1999.90;999.90;;;6.90;99.90;;;;;;5096474;28;20058;-94
2020/12/13 06:24:10;;;;;;;1999.90;999.90;;;6.90;99.90;;;;;;5096457;28;20512;-93
2020/12/13 06:26:37;;;;;;;1999.90;999.90;;;6.90;99.90;;;;;;5096321;28;20483;-94
2020/12/13 06:29:06;;;;;;;1999.90;999.90;;;6.90;99.90;;;;;;5096215;28;20074;-93
2020/12/13 06:31:34;;;;;;;1999.90;999.90;;;6.90;99.90;;;;;;5096114;28;20048;-93
2020/12/13 06:34:02;;;;;;;1999.90;999.90;;;6.90;99.90;;;;;;5096128;28;20052;-96
2020/12/13 06:36:32;;;;;;;1999.90;999.90;;;6.90;99.90;;;;;;5096770;28;20064;-93
2020/12/13 06:39:00;;;;;;;1999.90;999.90;;;7.00;99.90;;;;;;5096007;28;20123;-94
2020/12/13 06:41:29;;;;;;;1999.90;999.90;;;6.90;99.90;;;;;;5096252;28;20418;-94
2020/12/13 06:44:02;;;;;;;1999.90;999.90;;;6.90;99.90;;;;;;5096448;28;20083;-94
2020/12/13 06:46:30;;;;;;;1999.90;999.90;;;6.90;99.90;;;;;;5096148;28;20114;-94
2020/12/13 06:48:58;;;;;;;1999.90;999.90;;;6.90;99.90;;;;;;5096654;28;20082;-94
2020/12/13 06:51:28;;;;;;;1999.90;999.90;;;6.90;99.90;;;;;;5095537;28;20054;-93
2020/12/13 06:53:57;;;;;;;1999.90;999.90;;;6.80;99.90;;;;;;5096240;28;20467;-94
2020/12/13 06:56:25;;;;;;;1999.90;999.90;;;6.90;99.90;;;;;;5095853;28;20505;-94
2020/12/13 06:58:58;;;;;;;1999.90;999.90;;;6.90;99.90;;;;;;5096054;28;20066;-94
2020/12/13 07:01:28;;;;;;;1999.90;999.90;;;6.90;99.90;;;;;;5095691;28;20048;-94
2020/12/13 07:03:56;;;;;;;1999.90;999.90;;;6.90;99.90;;;;;;5095601;28;20475;-94
2020/12/13 07:06:42;;;;;;;1999.90;999.90;;;6.90;99.90;;;;;;5095416;28;20474;-94
2020/12/13 07:09:12;;;;;;;1999.90;999.90;;;6.90;99.90;;;;;;5095394;28;20072;-93
2020/12/13 07:11:40;;;;;;;1999.90;999.90;;;6.90;99.90;;;;;;5095293;28;20080;-94
2020/12/13 07:14:10;;;;;;;1999.90;999.90;;;6.90;99.90;;;;;;5095133;28;20052;-94
2020/12/13 07:16:42;;;;;;;1999.90;999.90;;;6.90;99.90;;;;;;5095875;28;20048;-93
2020/12/13 07:19:11;;;;;;;1999.90;999.90;;;6.90;99.90;;;;;;5095645;28;20062;-93
2020/12/13 07:21:44;;;;;;;1999.90;999.90;;;6.90;99.90;;;;;;5095276;28;20127;-93
2020/12/13 07:24:14;;;;;;;;;;;6.90;99.90;;;;;;5085478;28;20047;-93
2020/12/13 07:26:41;;;;;;;1999.90;999.90;;;6.90;99.90;;;;;;5095239;28;20342;-94
2020/12/13 07:29:15;;;;;;;1999.90;999.90;;;6.90;99.90;;;;;;5095209;28;20047;-94
2020/12/13 07:31:45;;;;;;;1999.90;999.90;;;6.90;99.90;;;;;;5095357;28;20135;-94
2020/12/13 07:34:13;;;;;;;1999.90;999.90;;;6.90;99.90;;;;;;5095186;28;20070;-93
2020/12/13 07:36:41;;;;;;;1999.90;999.90;;;6.90;99.90;;;;;;5088502;28;20064;-94
2020/12/13 07:39:12;;;;;;;1999.90;999.90;;;7.00;99.90;;;;;;5088186;28;20052;-94
2020/12/13 07:41:41;;;;;;;1999.90;999.90;;;7.00;99.90;;;;;;5095323;28;20143;-93
2020/12/13 07:44:10;;;;;;;1999.90;999.90;;;7.00;99.90;;;;;;5096540;28;20416;-94
2020/12/13 07:46:38;;;;;;;1999.90;999.90;;;7.00;99.90;;;;;;5096365;28;20438;-94
2020/12/13 07:49:09;;;;;;;1999.90;999.90;;;7.00;99.90;;;;;;5097682;28;20073;-94
2020/12/13 07:51:39;;;;;;;1999.90;999.90;;;7.00;99.90;;;;;;5097303;28;20374;-93
2020/12/13 07:54:16;;;;;;;1999.90;999.90;;;7.00;99.90;;;;;;5077917;28;20048;-94
2020/12/13 07:56:47;;;;;;;1999.90;999.90;;;7.00;99.90;;;;;;5079308;28;20055;-94
2020/12/13 07:59:16;;;;;;;1999.90;999.90;;;7.00;99.90;;;;;;5090668;28;20061;-86
2020/12/13 08:01:45;;;;;;;1999.90;999.90;;;7.00;99.90;;;;;;5092450;28;20549;-86
2020/12/13 08:04:12;;;;;;;1999.90;999.90;;;7.00;99.90;;;;;;5092789;28;20127;-87
2020/12/13 08:06:40;;;;;;;1999.90;999.90;;;7.00;99.90;;;;;;5085924;28;20101;-86
2020/12/13 08:09:08;;;;;;;1999.90;999.90;;;7.00;99.90;;;;;;5092375;28;20048;-86
2020/12/13 08:11:36;;;;;;;1999.90;999.90;;;7.00;99.90;;;;;;5091436;28;20044;-87
2020/12/13 08:14:06;;;;;;;1999.90;999.90;;;7.10;99.90;;;;;;5092636;28;20083;-87
2020/12/13 08:16:36;;;;;;;1999.90;999.90;;;7.10;99.90;;;;;;5089760;28;20100;-87
2020/12/13 08:19:13;;;;;;;1999.90;999.90;;;7.10;99.90;;;;;;5090685;28;20047;-87
2020/12/13 08:21:51;;;;;;;1999.90;999.90;;;7.10;99.90;;;;;;5082711;28;20060;-87
2020/12/13 08:24:20;;;;;;;1999.90;999.90;;;7.10;99.90;;;;;;5089633;28;20048;-87
2020/12/13 08:26:49;;;;;;;1999.90;999.90;;;7.20;99.90;;;;;;5090237;28;20048;-87
2020/12/13 08:29:17;;;;;;;1999.90;999.90;;;7.20;99.90;;;;;;5093069;28;20067;-87
2020/12/13 08:31:44;;;;;;;1999.90;999.90;;;7.20;99.90;;;;;;5093206;28;20119;-87
2020/12/13 08:34:11;;;;;;;1999.90;999.90;;;7.20;99.90;;;;;;5093310;28;20505;-87
2020/12/13 08:36:38;;;;;;;1999.90;999.90;;;7.30;99.90;;;;;;5089336;28;20128;-87
2020/12/13 08:39:10;;;;;;;1999.90;999.90;;;7.30;99.90;;;;;;5091070;28;20076;-87
2020/12/13 08:41:45;;;;;;;1999.90;999.90;;;7.30;99.90;;;;;;5093296;28;20131;-87
2020/12/13 08:44:33;;;;;;;1999.90;999.90;;;7.30;99.90;;;;;;5093239;28;20074;-87
2020/12/13 08:47:01;;;;;;;1999.90;999.90;;;7.30;99.90;;;;;;5092673;28;20125;-88
2020/12/13 08:49:33;;;;;;;1999.90;999.90;;;7.40;99.90;;;;;;5092916;28;20621;-87
2020/12/13 08:52:15;;;;;;;1999.90;999.90;;;7.40;99.90;;;;;;5082548;28;20062;-87
2020/12/13 08:54:57;;;;;;;;;;;7.40;99.90;;;;;;5093798;28;20051;-87
2020/12/13 08:57:29;;;;;;;1999.90;999.90;;;7.50;99.90;;;;;;5092634;28;19980;-88
2020/12/13 09:00:03;;;;;;;1999.90;999.90;;;7.50;99.90;;;;;;5092782;28;20151;-87
2020/12/13 09:02:54;;;;;;;1999.90;999.90;;;7.50;99.90;;;;;;5093367;28;20060;-88
2020/12/13 09:05:25;;;;;;;1999.90;999.90;;;7.50;99.90;;;;;;5089896;28;20048;-88
2020/12/13 09:07:53;;;;;;;1999.90;999.90;;;7.50;99.90;;;;;;5092936;28;20076;-87
2020/12/13 09:10:21;;;;;;;1999.90;999.90;;;7.50;99.90;;;;;;5091902;28;20132;-88
2020/12/13 09:12:48;;;;;;;1999.90;999.90;;;7.50;99.90;;;;;;5092932;28;20474;-88
2020/12/13 09:15:17;;;;;;;1999.90;999.90;;;7.60;99.90;;;;;;5091556;28;20448;-88
2020/12/13 09:17:53;;;;;;;1999.90;999.90;;;7.60;99.90;;;;;;5093042;28;20094;-87
2020/12/13 09:20:26;;;;;;;1999.90;999.90;;;7.60;99.90;;;;;;5092962;28;20139;-88
2020/12/13 09:23:12;;;;;;;1999.90;999.90;;;7.60;99.90;;;;;;5090292;28;20041;-87
2020/12/13 09:25:40;;;;;;;1999.90;999.90;;;7.60;99.90;;;;;;5094773;28;20052;-88
2020/12/13 09:28:08;;;;;;;1999.90;999.90;;;7.60;99.90;;;;;;5098062;28;20190;-87
2020/12/13 09:30:37;;;;;;;1999.90;999.90;;;7.70;99.90;;;;;;5098975;28;20052;-87
2020/12/13 09:33:05;;;;;;;1999.90;999.90;;;7.70;99.90;;;;;;5098654;28;20079;-87
2020/12/13 09:35:32;;;;;;;1999.90;999.90;;;7.70;99.90;;;;;;5099184;28;20052;-88
2020/12/13 09:37:59;;;;;;;1999.90;999.90;;;7.70;99.90;;;;;;5097936;28;20052;-88
2020/12/13 09:40:27;;;;;;;1999.90;999.90;;;7.70;99.90;;;;;;5097870;28;20459;-87
2020/12/13 09:42:55;;;;;;;1999.90;999.90;;;7.70;99.90;;;;;;5093779;28;20056;-88
2020/12/13 09:45:23;;;;;;;1999.90;999.90;;;7.80;99.90;;;;;;5094746;28;20086;-87
2020/12/13 09:47:55;;;;;;;1999.90;999.90;;;7.80;99.90;;;;;;5096765;28;20089;-88
2020/12/13 09:50:23;;;;;;;1999.90;999.90;;;7.80;99.90;;;;;;5093927;28;20463;-87
2020/12/13 09:52:50;;;;;;;1999.90;999.90;;;7.70;99.90;;;;;;5095882;28;20048;-88
2020/12/13 09:55:17;;;;;;;1999.90;999.90;;;7.70;99.90;;;;;;5094972;28;20059;-88
2020/12/13 09:57:45;;;;;;;1999.90;999.90;;;7.70;99.90;;;;;;5095918;28;20546;-88
2020/12/13 10:00:12;;;;;;;1999.90;999.90;;;7.70;99.90;;;;;;5095849;28;20131;-88
2020/12/13 10:02:40;;;;;;;1999.90;999.90;;;7.70;99.90;;;;;;5095933;28;20437;-87
2020/12/13 10:05:16;;;;;;;1999.90;999.90;;;7.70;99.90;;;;;;5095206;28;20050;-88
2020/12/13 10:12:22;;;;;;;1999.90;999.90;;;7.70;99.90;;;;;;5065745;28;20056;-87
2020/12/13 10:18:17;;;;;;;;;;;7.70;99.90;;;;;;5105568;28;20493;-87
2020/12/13 10:20:45;;;;;;;1999.90;999.90;;;7.70;99.90;;;;;;5116117;28;19926;-87
2020/12/13 10:23:12;;;;;;;1999.90;999.90;;;7.70;99.90;;;;;;5115492;28;20101;-87
2020/12/13 10:25:46;;;;;;;1999.90;999.90;;;7.70;99.90;;;;;;5122751;27;20538;-87
2020/12/13 10:28:13;;;;;;;1999.90;999.90;;;7.60;99.90;;;;;;5116421;28;20134;-88
2020/12/13 10:30:40;;;;;;;1999.90;999.90;;;7.60;99.90;;;;;;5116208;28;20705;-88
2020/12/13 10:33:09;;;;;;;1999.90;999.90;;;7.60;99.90;;;;;;5115248;28;20050;-88
2020/12/13 10:35:38;;;;;;;1999.90;999.90;;;7.60;99.90;;;;;;5115559;28;20066;-88
2020/12/13 10:38:06;;;;;;;1999.90;999.90;;;7.60;99.90;;;;;;5113872;28;20043;-85
2020/12/13 10:40:42;;;;;;;1999.90;999.90;;;7.60;99.90;;;;;;5114555;28;20047;-89
2020/12/13 10:43:21;;;;;;;1999.90;999.90;;;7.60;99.90;;;;;;5122939;27;20134;-89
2020/12/13 10:46:11;;;;;;;1999.90;999.90;;;7.60;99.90;;;;;;5109651;27;20051;-88
2020/12/13 10:48:39;;;;;;;1999.90;999.90;;;7.60;99.90;;;;;;5113480;27;20307;-90
2020/12/13 10:51:06;;;;;;;1999.90;999.90;;;7.70;99.90;;;;;;5115531;28;20115;-87
2020/12/13 10:53:34;;;;;;;1999.90;999.90;;;7.60;99.90;;;;;;5115022;28;20039;-89
2020/12/13 10:56:03;;;;;;;1999.90;999.90;;;7.70;99.90;;;;;;5115614;28;20047;-90
2020/12/13 10:58:30;;;;;;;1999.90;999.90;;;7.60;99.90;;;;;;5115382;28;20064;-86
2020/12/13 11:01:01;;;;;;;1999.90;999.90;;;7.70;99.90;;;;;;5112433;28;20047;-88
2020/12/13 11:03:30;;;;;;;1999.90;999.90;;;7.70;99.90;;;;;;5115667;27;20046;-89
2020/12/13 11:05:58;;;;;;;1999.90;999.90;;;7.70;99.90;;;;;;5109793;28;20063;-84
2020/12/13 11:08:32;;;;;;;1999.90;999.90;;;7.70;99.90;;;;;;5113778;28;20055;-83
2020/12/13 11:11:00;;;;;;;1999.90;999.90;;;7.80;99.90;;;;;;5111291;28;20480;-88
2020/12/13 11:13:40;;;;;;;1999.90;999.90;;;7.80;99.90;;;;;;5107136;28;20047;-87
2020/12/13 11:16:20;;;;;;;1999.90;999.90;;;7.70;99.90;;;;;;5112889;28;20065;-86
2020/12/13 11:18:48;;;;;;;1999.90;999.90;;;7.80;99.90;;;;;;5113650;28;20405;-88
2020/12/13 11:21:15;;;;;;;1999.90;999.90;;;7.70;99.90;;;;;;5111520;28;20040;-89
2020/12/13 11:23:42;;;;;;;1999.90;999.90;;;7.80;99.90;;;;;;5115145;28;20590;-89
2020/12/13 11:26:10;;;;;;;1999.90;999.90;;;7.80;99.90;;;;;;5108149;28;20082;-90
2020/12/13 11:28:44;;;;;;;1999.90;999.90;;;7.70;99.90;;;;;;5108441;28;20048;-88
2020/12/13 11:31:15;;;;;;;1999.90;999.90;;;7.80;99.90;;;;;;5121457;27;20052;-87
2020/12/13 11:33:42;;;;;;;1999.90;999.90;;;7.80;99.90;;;;;;5126610;27;20078;-88
2020/12/13 11:36:10;;;;;;;1999.90;999.90;;;7.70;99.90;;;;;;5124046;27;20058;-87
2020/12/13 11:38:38;;;;;;;1999.90;999.90;;;7.70;99.90;;;;;;5122967;27;20052;-88
2020/12/13 11:41:05;;;;;;;1999.90;999.90;;;7.70;99.90;;;;;;5117844;27;20127;-84
2020/12/13 11:43:32;;;;;;;1999.90;999.90;;;7.70;99.90;;;;;;5113104;27;20062;-84
2020/12/13 11:45:59;;;;;;;1999.90;999.90;;;7.70;99.90;;;;;;5125902;27;20542;-84
2020/12/13 11:48:27;;;;;;;1999.90;999.90;;;7.80;99.90;;;;;;5108270;27;20085;-84
2020/12/13 11:50:54;;;;;;;1999.90;999.90;;;7.80;99.90;;;;;;5113363;27;20039;-83
2020/12/13 11:53:22;;;;;;;1999.90;999.90;;;7.70;99.90;;;;;;5113624;27;20141;-84
2020/12/13 11:55:49;;;;;;;1999.90;999.90;;;7.80;99.90;;;;;;5116479;27;20138;-84
2020/12/13 11:58:16;;;;;;;1999.90;999.90;;;7.70;99.90;;;;;;5113349;27;20393;-84
2020/12/13 12:00:45;;;;;;;1999.90;999.90;;;7.70;99.90;;;;;;5112533;28;20051;-85
2020/12/13 12:03:12;;;;;;;1999.90;999.90;;;7.70;99.90;;;;;;5113998;28;20653;-84
2020/12/13 12:05:40;;;;;;;1999.90;999.90;;;7.60;99.90;;;;;;5115786;27;20047;-84
2020/12/13 12:08:07;;;;;;;1999.90;999.90;;;7.60;99.90;;;;;;5116740;27;20425;-83
2020/12/13 12:10:34;;;;;;;1999.90;999.90;;;7.60;99.90;;;;;;5123497;27;20713;-84
2020/12/13 12:13:01;;;;;;;1999.90;999.90;;;7.60;99.90;;;;;;5120902;27;20047;-85
2020/12/13 12:15:31;;;;;;;1999.90;999.90;;;7.60;99.90;;;;;;5114055;27;20132;-84
2020/12/13 12:17:59;;;;;;;1999.90;999.90;;;7.60;99.90;;;;;;5121225;27;20074;-84
2020/12/13 12:20:27;;;;;;;1999.90;999.90;;;7.60;99.90;;;;;;5117461;27;20044;-84
2020/12/13 12:22:57;;;;;;;1999.90;999.90;;;7.60;99.90;;;;;;5112029;28;20715;-84
2020/12/13 12:25:24;;;;;;;1999.90;999.90;;;7.50;99.90;;;;;;5116370;27;20119;-84
2020/12/13 12:27:51;;;;;;;1999.90;999.90;;;7.50;99.90;;;;;;5112837;28;20482;-84
2020/12/13 12:30:19;;;;;;;1999.90;999.90;;;7.50;99.90;;;;;;5121723;28;20040;-84